AFR467 KCVG-EDDP
Flight info
| Callsign | AFR467 |
|---|---|
| Flight time | N/A |
| Altitude | 33000 |
| Route | BNGLE5 WWSHR Q29 JHW DCT SYR DCT NIPPY DCT ALLEX N503B ALLRY/M083F350 DCT 51N050W 53N040W 54N030W 54N020W DCT DOGAL DCT BEXET/N0484F350 DCT BOYNE DCT LAMSO DCT PETIK DCT NORTA/N0448F230 DCT ADMOS T959 KOJEC KOJEC1R |
| Aircraft | B77L/H-SDE1E2E3FGHIJ2J3J4J5M1RWXY/LB1D1 |
Departure
| Time | 2026-05-01 15:03 |
|---|---|
| Airport | Cincinnati Northern Kentucky International Airport (KCVG) |
Arrival
| Time | N/A |
|---|---|
| Airport | Leipzig/Halle Airport (EDDP) |
| Time | Latitude | Longitude | Altitude | Speed | Heading |
|---|---|---|---|---|---|
| 2026-05-01 14:53 | 39.05443 | -84.65805 | 887 ft | 0 kts | 271° |
| 2026-05-01 15:00 | 39.05310 | -84.65780 | 886 ft | 20 kts | 156° |
| 2026-05-01 15:00 | 39.05210 | -84.65661 | 886 ft | 23 kts | 85° |
| 2026-05-01 15:00 | 39.05216 | -84.65416 | 888 ft | 32 kts | 89° |
| 2026-05-01 15:01 | 39.05217 | -84.65116 | 881 ft | 31 kts | 90° |
| 2026-05-01 15:01 | 39.05297 | -84.64992 | 876 ft | 18 kts | 2° |
| 2026-05-01 15:01 | 39.05423 | -84.64987 | 876 ft | 18 kts | 0° |
| 2026-05-01 15:01 | 39.05547 | -84.64971 | 873 ft | 18 kts | 33° |
| 2026-05-01 15:02 | 39.05576 | -84.64819 | 873 ft | 18 kts | 88° |
| 2026-05-01 15:02 | 39.05558 | -84.64714 | 874 ft | 18 kts | 128° |
| 2026-05-01 15:02 | 39.05102 | -84.64670 | 877 ft | 102 kts | 180° |
| 2026-05-01 15:02 | 39.04109 | -84.64674 | 878 ft | 182 kts | 182° |
| 2026-05-01 15:03 | 39.02728 | -84.64690 | 1332 ft | 203 kts | 182° |
| 2026-05-01 15:03 | 39.01307 | -84.64671 | 2273 ft | 209 kts | 183° |
| 2026-05-01 15:03 | 38.99789 | -84.64325 | 2823 ft | 236 kts | 171° |
| 2026-05-01 15:03 | 38.98156 | -84.63681 | 3121 ft | 258 kts | 159° |
| 2026-05-01 15:04 | 38.96680 | -84.62240 | 3724 ft | 272 kts | 137° |
| 2026-05-01 15:04 | 38.95367 | -84.60459 | 4403 ft | 276 kts | 137° |
| 2026-05-01 15:04 | 38.94307 | -84.58368 | 5009 ft | 290 kts | 108° |
| 2026-05-01 15:04 | 38.94049 | -84.55792 | 5658 ft | 294 kts | 95° |
| 2026-05-01 15:05 | 38.93835 | -84.53156 | 6299 ft | 298 kts | 97° |
| 2026-05-01 15:05 | 38.94040 | -84.50494 | 6851 ft | 305 kts | 65° |
| 2026-05-01 15:05 | 38.95238 | -84.48297 | 7499 ft | 303 kts | 38° |
| 2026-05-01 15:05 | 38.96882 | -84.46650 | 8052 ft | 306 kts | 33° |
| 2026-05-01 15:06 | 38.98606 | -84.44995 | 8729 ft | 311 kts | 32° |
| 2026-05-01 15:06 | 39.00416 | -84.43532 | 9318 ft | 307 kts | 13° |
| 2026-05-01 15:06 | 39.02484 | -84.42936 | 9793 ft | 305 kts | 2° |
| 2026-05-01 15:06 | 39.04602 | -84.42399 | 10329 ft | 316 kts | 5° |
| 2026-05-01 15:07 | 39.06809 | -84.41766 | 10554 ft | 338 kts | 6° |
| 2026-05-01 15:07 | 39.09183 | -84.41123 | 10706 ft | 354 kts | 0° |
| 2026-05-01 15:07 | 39.11698 | -84.40962 | 10900 ft | 369 kts | 352° |
| 2026-05-01 15:07 | 39.14305 | -84.41061 | 11383 ft | 379 kts | 351° |
| 2026-05-01 15:08 | 39.16976 | -84.41175 | 11969 ft | 388 kts | 352° |
| 2026-05-01 15:08 | 39.19693 | -84.41239 | 12719 ft | 393 kts | 352° |
| 2026-05-01 15:08 | 39.22438 | -84.41255 | 13577 ft | 395 kts | 352° |
| 2026-05-01 15:08 | 39.25193 | -84.41255 | 14249 ft | 400 kts | 353° |
| 2026-05-01 15:09 | 39.27982 | -84.41244 | 14972 ft | 402 kts | 353° |
| 2026-05-01 15:09 | 39.30788 | -84.41212 | 15762 ft | 403 kts | 353° |
| 2026-05-01 15:09 | 39.33604 | -84.41172 | 16508 ft | 405 kts | 353° |
| 2026-05-01 15:09 | 39.36430 | -84.41133 | 17228 ft | 407 kts | 353° |
| 2026-05-01 15:10 | 39.39274 | -84.41095 | 17932 ft | 410 kts | 353° |
| 2026-05-01 15:10 | 39.45033 | -84.41022 | 19206 ft | 416 kts | 353° |
| 2026-05-01 15:10 | 39.47933 | -84.40987 | 19738 ft | 420 kts | 352° |
| 2026-05-01 15:11 | 39.50879 | -84.40952 | 20296 ft | 423 kts | 352° |
| 2026-05-01 15:11 | 39.56681 | -84.38897 | 21076 ft | 467 kts | 29° |
| 2026-05-01 15:11 | 39.59113 | -84.36030 | 21551 ft | 476 kts | 39° |
| 2026-05-01 15:12 | 39.61450 | -84.32945 | 21920 ft | 484 kts | 39° |
| 2026-05-01 15:12 | 39.66262 | -84.26722 | 22933 ft | 491 kts | 38° |
| 2026-05-01 15:12 | 39.68703 | -84.23597 | 23493 ft | 495 kts | 38° |
| 2026-05-01 15:13 | 39.76173 | -84.14078 | 24611 ft | 509 kts | 37° |
| 2026-05-01 15:14 | 39.81238 | -84.07620 | 25345 ft | 518 kts | 37° |
| 2026-05-01 15:14 | 39.83820 | -84.04320 | 25706 ft | 522 kts | 37° |
| 2026-05-01 15:14 | 39.89047 | -83.97625 | 26511 ft | 530 kts | 37° |
| 2026-05-01 15:15 | 39.94322 | -83.90850 | 27317 ft | 536 kts | 37° |
| 2026-05-01 15:15 | 39.99686 | -83.83952 | 27916 ft | 546 kts | 37° |
| 2026-05-01 15:16 | 40.05130 | -83.76931 | 28594 ft | 553 kts | 37° |
| 2026-05-01 15:16 | 40.10629 | -83.69818 | 29321 ft | 559 kts | 37° |
| 2026-05-01 15:17 | 40.16141 | -83.62665 | 30223 ft | 558 kts | 37° |
| 2026-05-01 15:18 | 40.24365 | -83.51971 | 31259 ft | 559 kts | 36° |
| 2026-05-01 15:18 | 40.27117 | -83.48384 | 31636 ft | 558 kts | 36° |
| 2026-05-01 15:19 | 40.35329 | -83.37653 | 32826 ft | 554 kts | 36° |
| 2026-05-01 15:19 | 40.40829 | -83.30460 | 32955 ft | 560 kts | 36° |
| 2026-05-01 15:19 | 40.43590 | -83.26836 | 32947 ft | 559 kts | 36° |
| 2026-05-01 15:20 | 40.51764 | -83.16066 | 32948 ft | 553 kts | 36° |
| 2026-05-01 15:21 | 40.57196 | -83.08900 | 32944 ft | 553 kts | 36° |
| 2026-05-01 15:21 | 40.62623 | -83.01725 | 32945 ft | 553 kts | 36° |
| 2026-05-01 15:22 | 40.70725 | -82.90976 | 32999 ft | 553 kts | 37° |
| 2026-05-01 15:22 | 40.76147 | -82.83758 | 32955 ft | 553 kts | 37° |
| 2026-05-01 15:23 | 40.81552 | -82.76542 | 32955 ft | 552 kts | 37° |
| 2026-05-01 15:23 | 40.86944 | -82.69329 | 32956 ft | 551 kts | 37° |
| 2026-05-01 15:24 | 40.91416 | -82.63334 | 32989 ft | 550 kts | 38° |
| 2026-05-01 15:24 | 40.96782 | -82.56123 | 32972 ft | 550 kts | 38° |
| 2026-05-01 15:25 | 41.02142 | -82.48903 | 32981 ft | 549 kts | 38° |
| 2026-05-01 15:25 | 41.07484 | -82.41689 | 32970 ft | 548 kts | 38° |
| 2026-05-01 15:26 | 41.12827 | -82.34456 | 33005 ft | 548 kts | 39° |
| 2026-05-01 15:26 | 41.18153 | -82.27228 | 32989 ft | 547 kts | 39° |
| 2026-05-01 15:27 | 41.23462 | -82.20004 | 32985 ft | 546 kts | 39° |
| 2026-05-01 15:28 | 41.31337 | -82.09071 | 32985 ft | 549 kts | 45° |
| 2026-05-01 15:28 | 41.35656 | -82.00670 | 32970 ft | 557 kts | 57° |
| 2026-05-01 15:29 | 41.40388 | -81.86411 | 32966 ft | 560 kts | 65° |
| 2026-05-01 15:30 | 41.45871 | -81.68852 | 32959 ft | 560 kts | 64° |
| 2026-05-01 15:31 | 41.55419 | -81.38595 | 32979 ft | 558 kts | 64° |
| 2026-05-01 15:32 | 41.61415 | -81.19440 | 33003 ft | 557 kts | 64° |
| 2026-05-01 15:34 | 41.70301 | -80.90792 | 32982 ft | 556 kts | 65° |